x

Louisiana Offshore Oil Port, La (lopl1) Wave Buoy

10:05pm - Mon 20th Nov 2017 All times are CST. -6 hours from GMT.

  • Sig Wave height 2.0ft
  • Wind
    14mph, 18mph gusts
  • Air Temp 62°f
  • Sea Pressure 1019.1mb
  • Louisiana Offshore Oil Port, La
  • Louisiana Offshore Oil Port, La

More Historic Weather Station data

Upgrade to MSW Pro to gain access to the past 30 days of data for over 8000 Wavebouys and Weather Stations around the globe.

Join

Comparision Forecast

View Surf forecast
   
Mon 11/20 10:05pm 2ft 14 18 mph 1019.1mb 62f
9:05pm 2ft 15 20 mph 1019.1mb 62f
8:05pm 2ft 14 17 mph 1020.1mb 62f
7:05pm 2ft 14 17 mph 1019.1mb 62f
6:05pm 2ft 13 16 mph 1020.1mb 62f
5:05pm 2ft 11 15 mph 1019.1mb 62f
4:05pm 2ft 13 15 mph 1020.1mb 62f
3:05pm 2ft 14 18 mph 1020.1mb 61f
2:05pm 2.5ft 13 17 mph 1020.1mb 62f
1:05pm 2ft 10 15 mph 1020.1mb 62f
12:05pm 2.5ft 10 15 mph 1022.1mb 61f
11:05am 2.5ft 11 15 mph 1022.1mb 60f
10:05am 3ft 13 18 mph 1023.1mb 60f
9:05am 3ft 14 22 mph 1023.1mb 59f
8:05am 3ft 17 22 mph 1023.1mb 58f
7:05am 3ft 18 24 mph 1023.1mb 58f
6:05am 3ft 15 22 mph 1022.1mb 58f
5:05am 3ft 17 22 mph 1022.1mb 58f
4:05am 3ft 17 21 mph 1021.1mb 58f
3:05am 3.5ft 22 29 mph 1022.1mb 57f
2:05am 3ft 22 29 mph 1022.1mb 57f
1:05am 3.5ft 21 26 mph 1022.1mb 58f
12:05am 3ft 22 29 mph 1023.1mb 58f
Sun 11/19 11:05pm 3.5ft 21 26 mph 1023.1mb 59f
10:05pm 3ft 22 28 mph 1023.1mb 59f
9:05pm 3.5ft 22 28 mph 1022.1mb 60f
8:00pm 3.5ft 21 29 mph 1022.1mb 60f
7:00pm 3ft 22 29 mph 1021.1mb 60f
6:00pm 2.5ft 16 25 mph 1021.1mb 60f
5:00pm 3ft 20 25 mph 1020.1mb 60f
4:00pm 3ft 16 24 mph 1020.1mb 60f
3:00pm 3.5ft 18 24 mph 1019.1mb 60f
2:00pm 3.5ft 16 25 mph 1020.1mb 59f
1:00pm 4ft 21 26 mph 1020.1mb 57f
12:00pm 4ft 23 30 mph 1021.1mb 56f
11:00am 4.5ft 26 32 mph 1021.1mb 55f
10:00am 4.5ft 28 38 mph 1022.1mb 55f
9:00am 5ft 31 40 mph 1021.1mb 55f
8:00am 5.5ft 32 41 mph 1020.1mb 55f
7:00am 5ft 30 40 mph 1019.1mb 57f
6:00am 5ft 32 44 mph 1018.1mb 57f
5:00am 5ft 33 40 mph 1017.1mb 58f
4:00am 5ft 34 43 mph 1016.1mb 60f
3:00am 5ft 31 40 mph 1016.1mb 63f
2:00am 5ft 25 38 mph 1015.1mb 64f
1:00am 4.5ft 29 43 mph 1015.1mb 66f
12:00am 3.5ft 29 40 mph 1014.1mb 67f
Sat 11/18 11:00pm 3.5ft 7 10 mph 1013.1mb 76f
10:00pm 3ft 18 22 mph 1014.1mb 76f
9:00pm 3.5ft 18 22 mph 1013.1mb 76f
8:00pm 3.5ft 18 22 mph 1013.1mb 76f
7:00pm 3.5ft 17 21 mph 1013.1mb 76f
6:00pm 3.5ft 17 21 mph 1013.1mb 76f
4:55pm 3.5ft 16 22 mph 1012.1mb 76f
3:55pm 3.5ft 14 18 mph 1012.1mb 76f
2:55pm 3.5ft 20 23 mph 1012.1mb 76f
1:55pm 3.5ft 18 23 mph 1012.1mb 77f
12:55pm 3.5ft 18 22 mph 1012.1mb 76f
11:55am 3.5ft 21 23 mph 1013.1mb 76f
10:55am 3.5ft 22 25 mph 1014.1mb 76f
9:55am 3.5ft 23 25 mph 1015.1mb 76f
8:55am 3.5ft 24 26 mph 1015.1mb 76f
7:55am 3ft 23 25 mph 1015.1mb 75f
6:55am 3.5ft 24 26 mph 1014.1mb 75f
5:55am 3ft 25 29 mph 1014.1mb 75f
4:55am 3ft 23 26 mph 1014.1mb 75f
3:55am 2.5ft 22 24 mph 1014.1mb 75f
2:55am 2.5ft 24 26 mph 1014.1mb 75f
1:55am 2ft 23 28 mph 1015.1mb 75f
12:55am 2ft 18 22 mph 1015.1mb 75f
Fri 11/17 11:55pm 1.6ft 14 18 mph 1016.1mb 75f
10:55pm 1.3ft 14 20 mph 1017.1mb 74f
9:55pm 1.3ft 13 18 mph 1017.1mb 74f
8:55pm 1ft 11 16 mph 1017.1mb 74f
7:55pm 1ft 10 14 mph 1017.1mb 73f
6:55pm 1ft 9 13 mph 1017.1mb 73f
5:55pm 1ft 8 11 mph 1017.1mb 73f
4:55pm 1ft 8 9 mph 1017.1mb 73f
3:55pm 1ft 9 11 mph 1017.1mb 73f
2:55pm 0.7ft 5 6 mph 1017.1mb 72f
1:55pm 1ft 5 6 mph 1018.1mb 72f
12:55pm 1.3ft 6 9 mph 1018.1mb 72f
11:55am 1.3ft 7 8 mph 1019.1mb 71f
10:55am 1.3ft 9 11 mph 1020.1mb 71f
9:55am 1.3ft 10 14 mph 1021.1mb 71f
8:55am 1.3ft 9 13 mph 1021.1mb 71f
7:55am 1.3ft 8 9 mph 1021.1mb 71f
6:55am 1.3ft 7 8 mph 1020.1mb 71f
5:50am 1.6ft 8 10 mph 1020.1mb 71f